Seneimaru — JG5357 — position and weather

sailwx.info

Track history (hours):
 
Tides and Currents Weather Stations Pressure Air Temp Water Temp Dewpoint Dewpoint Depression Visibility Wind Speed Wind Dir Waves Ship Positions

Seneimaru

Last reported at 2016-Jul-27 07:33 UTC. Time now 2016-Jul-27 07:50 UTC.
Position N 35°18' E 139°44'.

Length 72 m; draft 5.9 m.

Type: Cargo ship. MMSI: 431100477.

Date/timePositionNaut miles runAvg speedWind from/ knotsBaromVisibWave heightAir tempDewpointWater temp
2016-Jul-27 07:33N 35°18' E 139°44'9 9.5
2016-Jul-27 06:33N 35°27' E 139°46'4 3.8
2016-Jul-27 05:33N 35°30' E 139°43'0 0.0
2016-Jul-27 04:33N 35°30' E 139°43'0 0.0
2016-Jul-27 03:33N 35°30' E 139°43'0 0.0
2016-Jul-27 02:33N 35°30' E 139°43'0 0.0
2016-Jul-27 01:33N 35°30' E 139°43'0 0.0
2016-Jul-27 00:33N 35°30' E 139°43'0 0.0
2016-Jul-26 23:33N 35°30' E 139°43'0 0.0
2016-Jul-26 22:33N 35°30' E 139°43'3 2.9
2016-Jul-26 21:33N 35°27' E 139°43'1 0.7
2016-Jul-26 20:33N 35°27' E 139°44'7 6.9
2016-Jul-26 19:33N 35°20' E 139°44'1111.3
2016-Jul-26 18:33N 35°09' E 139°46'1211.1
2016-Jul-26 17:26N 34°56' E 139°44'12 0.4
2016-Jul-25 11:13N 34°46' E 139°50'1111.6
2016-Jul-25 10:18N 34°56' E 139°45'810.6
2016-Jul-25 09:33N 35°03' E 139°44'1211.6
2016-Jul-25 08:33N 35°15' E 139°46'1010.2
2016-Jul-25 07:33N 35°25' E 139°43'5 5.2
2016-Jul-25 06:33N 35°30' E 139°43'0 0.4
2016-Jul-25 05:33N 35°30' E 139°43'0 0.0
2016-Jul-25 04:33N 35°30' E 139°43'0 0.0
2016-Jul-25 03:33N 35°30' E 139°43'0 0.0
2016-Jul-25 02:33N 35°30' E 139°43'0 0.0
2016-Jul-25 01:33N 35°30' E 139°43'0 0.0
2016-Jul-25 00:33N 35°30' E 139°43'0 0.0
2016-Jul-24 23:34N 35°30' E 139°43'0 0.0
2016-Jul-24 22:33N 35°30' E 139°43'0 0.0
2016-Jul-24 21:34N 35°30' E 139°43'0 0.0
2016-Jul-24 20:33N 35°30' E 139°43'1 1.3
2016-Jul-24 19:33N 35°29' E 139°42'6 5.7
2016-Jul-24 18:33N 35°23' E 139°44'0 0.0
2016-Jul-24 17:33N 35°23' E 139°44'0 0.0
2016-Jul-24 16:33N 35°23' E 139°44'0 0.0
2016-Jul-24 15:33N 35°23' E 139°44'8 8.5
2016-Jul-24 14:33N 35°15' E 139°47'16 0.4
2016-Jul-23 03:28N 35°00' E 139°43'1112.6
2016-Jul-23 02:33N 35°11' E 139°46'1211.7
2016-Jul-23 01:33N 35°23' E 139°42'8 7.6
2016-Jul-23 00:33N 35°30' E 139°44'1 1.2
2016-Jul-22 23:33N 35°30' E 139°43'0 0.0
2016-Jul-22 22:34N 35°30' E 139°43'0 0.0
2016-Jul-22 21:33N 35°30' E 139°43'0 0.0
2016-Jul-22 20:33N 35°30' E 139°43'1 1.3
2016-Jul-22 19:33N 35°29' E 139°42'5 5.5
2016-Jul-22 18:34N 35°24' E 139°44'0 0.0
2016-Jul-22 17:31N 35°24' E 139°44'0 0.1
2016-Jul-22 16:31N 35°24' E 139°44'8 8.0
2016-Jul-22 15:34N 35°16' E 139°46'1111.0
2016-Jul-22 14:34N 35°05' E 139°45'4 0.1
2016-Jul-21 04:33N 35°02' E 139°43'1212.2
2016-Jul-21 03:33N 35°14' E 139°46'1110.9
2016-Jul-21 02:34N 35°24' E 139°43'6 5.6
2016-Jul-21 01:34N 35°30' E 139°43'1 0.6
2016-Jul-21 00:34N 35°30' E 139°43'0 0.0
2016-Jul-20 23:34N 35°30' E 139°43'0 0.0
2016-Jul-20 22:34N 35°30' E 139°43'0 0.0
2016-Jul-20 21:33N 35°30' E 139°43'0 0.0
2016-Jul-20 20:33N 35°30' E 139°43'1 1.4
2016-Jul-20 19:34N 35°29' E 139°42'6 6.0
2016-Jul-20 18:31N 35°23' E 139°43'0 0.0
2016-Jul-20 17:31N 35°23' E 139°43'0 0.0
2016-Jul-20 16:31N 35°23' E 139°43'0 0.0
2016-Jul-20 15:31N 35°23' E 139°43'0 0.0
2016-Jul-20 14:31N 35°23' E 139°43'5 5.2
2016-Jul-20 13:33N 35°18' E 139°45'1111.1
2016-Jul-20 12:33N 35°07' E 139°46'11 0.3
2016-Jul-19 04:13N 34°56' E 139°45'710.5
2016-Jul-19 03:32N 35°03' E 139°44'1211.9
2016-Jul-19 02:33N 35°14' E 139°46'1110.6
2016-Jul-19 01:34N 35°25' E 139°43'5 5.0
2016-Jul-19 00:33N 35°30' E 139°43'0 0.5
2016-Jul-18 23:34N 35°30' E 139°43'0 0.0
2016-Jul-18 22:34N 35°30' E 139°43'0 0.0
2016-Jul-18 21:34N 35°30' E 139°43'0 0.0
2016-Jul-18 20:34N 35°30' E 139°43'0 0.0
2016-Jul-18 19:34N 35°30' E 139°43'0 0.0
2016-Jul-18 18:34N 35°30' E 139°43'0 0.0
2016-Jul-18 17:34N 35°30' E 139°43'0 0.0
2016-Jul-18 16:34N 35°30' E 139°43'0 0.0
2016-Jul-18 15:34N 35°30' E 139°43'0 0.0
2016-Jul-18 14:34N 35°30' E 139°43'0 0.0
2016-Jul-18 13:34N 35°30' E 139°43'0 0.0
2016-Jul-18 12:34N 35°30' E 139°43'0 0.0
2016-Jul-18 11:34N 35°30' E 139°43'0 0.0
2016-Jul-18 10:34N 35°30' E 139°43'0 0.0
2016-Jul-18 09:33N 35°30' E 139°43'0 0.0
2016-Jul-18 08:34N 35°30' E 139°43'0 0.0
2016-Jul-18 07:34N 35°30' E 139°43'0 0.0
2016-Jul-18 06:34N 35°30' E 139°43'0 0.0
2016-Jul-18 05:34N 35°30' E 139°43'0 0.0
2016-Jul-18 04:34N 35°30' E 139°43'0 0.0
2016-Jul-18 03:34N 35°30' E 139°43'0 0.0
2016-Jul-18 02:34N 35°30' E 139°43'0 0.0
2016-Jul-18 01:34N 35°30' E 139°43'0 0.0
2016-Jul-18 00:34N 35°30' E 139°43'0 0.0
2016-Jul-17 23:34N 35°30' E 139°43'0 0.0
2016-Jul-17 22:33N 35°30' E 139°43'0 0.0
2016-Jul-17 21:34N 35°30' E 139°43'0 0.0
2016-Jul-17 20:34N 35°30' E 139°43'0 0.0
2016-Jul-17 19:33N 35°30' E 139°43'0 0.0
2016-Jul-17 18:34N 35°30' E 139°43'0 0.0
2016-Jul-17 17:33N 35°30' E 139°43'0 0.0
2016-Jul-17 16:34N 35°30' E 139°43'0 0.0
2016-Jul-17 15:34N 35°30' E 139°43'0 0.0
2016-Jul-17 14:34N 35°30' E 139°43'0 0.0
2016-Jul-17 13:34N 35°30' E 139°43'0 0.0
2016-Jul-17 12:34N 35°30' E 139°43'0 0.0
2016-Jul-17 11:34N 35°30' E 139°43'0 0.0
2016-Jul-17 10:34N 35°30' E 139°43'0 0.0
2016-Jul-17 09:33N 35°30' E 139°43'0 0.0
2016-Jul-17 08:34N 35°30' E 139°43'  
Track history (hours):
 
Tides and Currents Weather Stations Pressure Air Temp Water Temp Dewpoint Dewpoint Depression Visibility Wind Speed Wind Dir Waves Ship Positions

Seneimaru

Last reported at 2016-Jul-27 07:33 UTC. Time now 2016-Jul-27 07:50 UTC.
Position N 35°18' E 139°44'.

Length 72 m; draft 5.9 m.

Type: Cargo ship. MMSI: 431100477.

Date/timePositionNaut miles runAvg speedWind from/ knotsBaromVisibWave heightAir tempDewpointWater temp
2016-Jul-27 07:33N 35°18' E 139°44'9 9.5
2016-Jul-27 06:33N 35°27' E 139°46'4 3.8
2016-Jul-27 05:33N 35°30' E 139°43'0 0.0
2016-Jul-27 04:33N 35°30' E 139°43'0 0.0
2016-Jul-27 03:33N 35°30' E 139°43'0 0.0
2016-Jul-27 02:33N 35°30' E 139°43'0 0.0
2016-Jul-27 01:33N 35°30' E 139°43'0 0.0
2016-Jul-27 00:33N 35°30' E 139°43'0 0.0
2016-Jul-26 23:33N 35°30' E 139°43'0 0.0
2016-Jul-26 22:33N 35°30' E 139°43'3 2.9
2016-Jul-26 21:33N 35°27' E 139°43'1 0.7
2016-Jul-26 20:33N 35°27' E 139°44'7 6.9
2016-Jul-26 19:33N 35°20' E 139°44'1111.3
2016-Jul-26 18:33N 35°09' E 139°46'1211.1
2016-Jul-26 17:26N 34°56' E 139°44'12 0.4
2016-Jul-25 11:13N 34°46' E 139°50'1111.6
2016-Jul-25 10:18N 34°56' E 139°45'810.6
2016-Jul-25 09:33N 35°03' E 139°44'1211.6
2016-Jul-25 08:33N 35°15' E 139°46'1010.2
2016-Jul-25 07:33N 35°25' E 139°43'5 5.2
2016-Jul-25 06:33N 35°30' E 139°43'0 0.4
2016-Jul-25 05:33N 35°30' E 139°43'0 0.0
2016-Jul-25 04:33N 35°30' E 139°43'0 0.0
2016-Jul-25 03:33N 35°30' E 139°43'0 0.0
2016-Jul-25 02:33N 35°30' E 139°43'0 0.0
2016-Jul-25 01:33N 35°30' E 139°43'0 0.0
2016-Jul-25 00:33N 35°30' E 139°43'0 0.0
2016-Jul-24 23:34N 35°30' E 139°43'0 0.0
2016-Jul-24 22:33N 35°30' E 139°43'0 0.0
2016-Jul-24 21:34N 35°30' E 139°43'0 0.0
2016-Jul-24 20:33N 35°30' E 139°43'1 1.3
2016-Jul-24 19:33N 35°29' E 139°42'6 5.7
2016-Jul-24 18:33N 35°23' E 139°44'0 0.0
2016-Jul-24 17:33N 35°23' E 139°44'0 0.0
2016-Jul-24 16:33N 35°23' E 139°44'0 0.0
2016-Jul-24 15:33N 35°23' E 139°44'8 8.5
2016-Jul-24 14:33N 35°15' E 139°47'16 0.4
2016-Jul-23 03:28N 35°00' E 139°43'1112.6
2016-Jul-23 02:33N 35°11' E 139°46'1211.7
2016-Jul-23 01:33N 35°23' E 139°42'8 7.6
2016-Jul-23 00:33N 35°30' E 139°44'1 1.2
2016-Jul-22 23:33N 35°30' E 139°43'0 0.0
2016-Jul-22 22:34N 35°30' E 139°43'0 0.0
2016-Jul-22 21:33N 35°30' E 139°43'0 0.0
2016-Jul-22 20:33N 35°30' E 139°43'1 1.3
2016-Jul-22 19:33N 35°29' E 139°42'5 5.5
2016-Jul-22 18:34N 35°24' E 139°44'0 0.0
2016-Jul-22 17:31N 35°24' E 139°44'0 0.1
2016-Jul-22 16:31N 35°24' E 139°44'8 8.0
2016-Jul-22 15:34N 35°16' E 139°46'1111.0
2016-Jul-22 14:34N 35°05' E 139°45'4 0.1
2016-Jul-21 04:33N 35°02' E 139°43'1212.2
2016-Jul-21 03:33N 35°14' E 139°46'1110.9
2016-Jul-21 02:34N 35°24' E 139°43'6 5.6
2016-Jul-21 01:34N 35°30' E 139°43'1 0.6
2016-Jul-21 00:34N 35°30' E 139°43'0 0.0
2016-Jul-20 23:34N 35°30' E 139°43'0 0.0
2016-Jul-20 22:34N 35°30' E 139°43'0 0.0
2016-Jul-20 21:33N 35°30' E 139°43'0 0.0
2016-Jul-20 20:33N 35°30' E 139°43'1 1.4
2016-Jul-20 19:34N 35°29' E 139°42'6 6.0
2016-Jul-20 18:31N 35°23' E 139°43'0 0.0
2016-Jul-20 17:31N 35°23' E 139°43'0 0.0
2016-Jul-20 16:31N 35°23' E 139°43'0 0.0
2016-Jul-20 15:31N 35°23' E 139°43'0 0.0
2016-Jul-20 14:31N 35°23' E 139°43'5 5.2
2016-Jul-20 13:33N 35°18' E 139°45'1111.1
2016-Jul-20 12:33N 35°07' E 139°46'11 0.3
2016-Jul-19 04:13N 34°56' E 139°45'710.5
2016-Jul-19 03:32N 35°03' E 139°44'1211.9
2016-Jul-19 02:33N 35°14' E 139°46'1110.6
2016-Jul-19 01:34N 35°25' E 139°43'5 5.0
2016-Jul-19 00:33N 35°30' E 139°43'0 0.5
2016-Jul-18 23:34N 35°30' E 139°43'0 0.0
2016-Jul-18 22:34N 35°30' E 139°43'0 0.0
2016-Jul-18 21:34N 35°30' E 139°43'0 0.0
2016-Jul-18 20:34N 35°30' E 139°43'0 0.0
2016-Jul-18 19:34N 35°30' E 139°43'0 0.0
2016-Jul-18 18:34N 35°30' E 139°43'0 0.0
2016-Jul-18 17:34N 35°30' E 139°43'0 0.0
2016-Jul-18 16:34N 35°30' E 139°43'0 0.0
2016-Jul-18 15:34N 35°30' E 139°43'0 0.0
2016-Jul-18 14:34N 35°30' E 139°43'0 0.0
2016-Jul-18 13:34N 35°30' E 139°43'0 0.0
2016-Jul-18 12:34N 35°30' E 139°43'0 0.0
2016-Jul-18 11:34N 35°30' E 139°43'0 0.0
2016-Jul-18 10:34N 35°30' E 139°43'0 0.0
2016-Jul-18 09:33N 35°30' E 139°43'0 0.0
2016-Jul-18 08:34N 35°30' E 139°43'0 0.0
2016-Jul-18 07:34N 35°30' E 139°43'0 0.0
2016-Jul-18 06:34N 35°30' E 139°43'0 0.0
2016-Jul-18 05:34N 35°30' E 139°43'0 0.0
2016-Jul-18 04:34N 35°30' E 139°43'0 0.0
2016-Jul-18 03:34N 35°30' E 139°43'0 0.0
2016-Jul-18 02:34N 35°30' E 139°43'0 0.0
2016-Jul-18 01:34N 35°30' E 139°43'0 0.0
2016-Jul-18 00:34N 35°30' E 139°43'0 0.0
2016-Jul-17 23:34N 35°30' E 139°43'0 0.0
2016-Jul-17 22:33N 35°30' E 139°43'0 0.0
2016-Jul-17 21:34N 35°30' E 139°43'0 0.0
2016-Jul-17 20:34N 35°30' E 139°43'0 0.0
2016-Jul-17 19:33N 35°30' E 139°43'0 0.0
2016-Jul-17 18:34N 35°30' E 139°43'0 0.0
2016-Jul-17 17:33N 35°30' E 139°43'0 0.0
2016-Jul-17 16:34N 35°30' E 139°43'0 0.0
2016-Jul-17 15:34N 35°30' E 139°43'0 0.0
2016-Jul-17 14:34N 35°30' E 139°43'0 0.0
2016-Jul-17 13:34N 35°30' E 139°43'0 0.0
2016-Jul-17 12:34N 35°30' E 139°43'0 0.0
2016-Jul-17 11:34N 35°30' E 139°43'0 0.0
2016-Jul-17 10:34N 35°30' E 139°43'0 0.0
2016-Jul-17 09:33N 35°30' E 139°43'0 0.0
2016-Jul-17 08:34N 35°30' E 139°43'  

Dump ship's entire track history